createdAt,value
2023-03-26T00:01:41.747Z,75.51
2023-03-26T00:04:09.223Z,75.32
2023-03-26T00:06:40.066Z,75.60
2023-03-26T00:09:13.628Z,76.03
2023-03-26T00:11:43.166Z,75.38
2023-03-26T00:14:14.200Z,75.56
2023-03-26T00:16:45.148Z,75.54
2023-03-26T00:19:12.913Z,75.95
2023-03-26T00:21:41.624Z,76.07
2023-03-26T00:24:15.274Z,76.88
2023-03-26T00:26:44.776Z,78.10
2023-03-26T00:29:14.000Z,78.72
2023-03-26T00:31:46.380Z,78.26
2023-03-26T00:34:18.572Z,78.55
2023-03-26T00:36:47.279Z,79.33
2023-03-26T00:39:15.394Z,79.92
2023-03-26T00:41:43.788Z,78.73
2023-03-26T00:44:11.654Z,78.70
2023-03-26T00:46:39.809Z,79.11
2023-03-26T00:49:11.193Z,79.63
2023-03-26T00:51:39.456Z,79.97
2023-03-26T00:54:08.345Z,79.77
2023-03-26T00:56:36.369Z,80.37
2023-03-26T00:59:04.004Z,79.98
2023-03-26T01:01:32.547Z,81.18
2023-03-26T01:04:31.176Z,81.85
2023-03-26T01:07:10.356Z,81.74
2023-03-26T01:09:50.292Z,81.73
2023-03-26T01:12:24.577Z,80.85
2023-03-26T01:15:01.060Z,81.52
2023-03-26T01:17:38.032Z,81.79
2023-03-26T01:20:26.912Z,82.67
2023-03-26T01:23:05.446Z,82.80
2023-03-26T01:25:45.735Z,83.16
2023-03-26T01:28:17.607Z,82.49
2023-03-26T01:31:20.296Z,81.90
2023-03-26T01:34:05.909Z,81.78
2023-03-26T01:36:59.055Z,81.59
2023-03-26T01:39:49.542Z,82.09
2023-03-26T01:42:59.204Z,81.49
2023-03-26T01:45:34.152Z,81.97
2023-03-26T01:48:01.917Z,81.73
2023-03-26T01:50:29.608Z,81.61
2023-03-26T01:52:57.127Z,81.63
2023-03-26T01:55:49.631Z,82.23
2023-03-26T01:58:37.529Z,81.60
2023-03-26T02:01:24.620Z,80.78
2023-03-26T02:04:33.495Z,80.93
2023-03-26T02:07:18.007Z,81.23
2023-03-26T02:09:52.809Z,81.44
2023-03-26T02:12:23.110Z,81.90
2023-03-26T02:14:50.717Z,81.43
2023-03-26T02:17:19.195Z,80.90
2023-03-26T02:19:48.072Z,80.92
2023-03-26T02:22:16.163Z,81.16
2023-03-26T02:24:45.325Z,80.08
2023-03-26T02:27:12.981Z,80.17
2023-03-26T02:29:41.389Z,79.75
2023-03-26T02:32:14.598Z,80.12
2023-03-26T02:34:42.982Z,79.85
2023-03-26T02:37:10.777Z,79.89
2023-03-26T02:39:38.259Z,80.16
2023-03-26T02:42:06.096Z,79.49
2023-03-26T02:44:33.461Z,80.18
2023-03-26T02:47:01.376Z,80.46
2023-03-26T02:49:29.077Z,81.63
2023-03-26T02:51:57.098Z,81.58
2023-03-26T02:54:24.445Z,81.84
2023-03-26T02:56:52.041Z,81.35
2023-03-26T02:59:19.357Z,81.81
2023-03-26T03:01:46.873Z,81.08
2023-03-26T03:04:14.180Z,81.46
2023-03-26T03:06:41.836Z,81.57
2023-03-26T03:09:09.189Z,82.10
2023-03-26T03:11:41.148Z,81.76
2023-03-26T03:14:08.418Z,82.30
2023-03-26T03:16:36.012Z,80.80
2023-03-26T03:19:03.398Z,80.90
2023-03-26T03:21:31.021Z,80.89
2023-03-26T03:23:59.717Z,80.88
2023-03-26T03:26:30.109Z,81.06
2023-03-26T03:28:58.837Z,80.93
2023-03-26T03:31:27.346Z,80.85
2023-03-26T03:33:54.716Z,80.71
2023-03-26T03:36:28.081Z,81.24
2023-03-26T03:38:55.519Z,81.22
2023-03-26T03:41:23.157Z,81.06
2023-03-26T03:43:51.986Z,80.70
2023-03-26T03:46:19.813Z,81.02
2023-03-26T03:48:49.942Z,80.62
2023-03-26T03:51:18.592Z,80.97
2023-03-26T03:53:46.309Z,81.31
2023-03-26T03:56:14.893Z,81.05
2023-03-26T03:58:42.367Z,80.60
2023-03-26T04:01:11.256Z,81.04
2023-03-26T04:03:39.109Z,81.09
2023-03-26T04:06:07.955Z,81.99
2023-03-26T04:08:35.674Z,82.04
2023-03-26T04:11:03.362Z,82.08
2023-03-26T04:13:30.794Z,82.12
2023-03-26T04:16:00.068Z,82.31
2023-03-26T04:18:27.912Z,80.91
2023-03-26T04:20:55.944Z,81.29
2023-03-26T04:23:26.738Z,81.23
2023-03-26T04:25:58.112Z,81.31
2023-03-26T04:28:36.375Z,81.16
2023-03-26T04:31:04.271Z,81.19
2023-03-26T04:33:35.196Z,81.50
2023-03-26T04:36:03.563Z,81.32
2023-03-26T04:38:39.946Z,80.81
2023-03-26T04:41:07.837Z,81.10
2023-03-26T04:43:42.396Z,81.05
2023-03-26T04:46:10.665Z,80.38
2023-03-26T04:48:41.155Z,80.38
2023-03-26T04:51:10.201Z,79.99
2023-03-26T04:53:37.955Z,80.10
2023-03-26T04:56:41.064Z,79.83
2023-03-26T04:59:18.138Z,79.74
2023-03-26T05:01:48.780Z,79.24
2023-03-26T05:04:16.409Z,78.54
2023-03-26T05:06:44.554Z,78.65
2023-03-26T05:09:11.935Z,78.36
2023-03-26T05:11:39.681Z,78.22
2023-03-26T05:14:11.200Z,77.73
2023-03-26T05:16:39.709Z,78.22
2023-03-26T05:19:07.228Z,78.44
2023-03-26T05:21:37.034Z,78.04
2023-03-26T05:24:06.396Z,77.91
2023-03-26T05:26:34.754Z,77.23
2023-03-26T05:29:03.092Z,77.55
2023-03-26T05:31:33.707Z,77.00
2023-03-26T05:34:01.129Z,76.88
2023-03-26T05:36:28.864Z,76.63
2023-03-26T05:38:56.293Z,77.06
2023-03-26T05:41:23.868Z,76.38
2023-03-26T05:43:51.310Z,76.50
2023-03-26T05:46:20.483Z,77.12
2023-03-26T05:48:47.903Z,76.20
2023-03-26T05:51:16.106Z,75.59
2023-03-26T05:53:44.010Z,74.97
2023-03-26T05:56:11.916Z,74.07
2023-03-26T05:58:39.322Z,73.83
2023-03-26T06:01:16.759Z,73.13
2023-03-26T06:03:46.166Z,72.87
2023-03-26T06:06:17.247Z,72.31
2023-03-26T06:09:01.150Z,72.04
2023-03-26T06:11:32.302Z,71.34
2023-03-26T06:14:00.798Z,72.02
2023-03-26T06:16:28.610Z,71.94
2023-03-26T06:18:57.504Z,71.75
2023-03-26T06:21:26.391Z,71.62
2023-03-26T06:23:54.685Z,71.78
2023-03-26T06:26:22.598Z,69.68
2023-03-26T06:28:49.929Z,69.55
2023-03-26T06:31:19.318Z,69.18
2023-03-26T06:33:47.095Z,68.29
2023-03-26T06:36:14.728Z,67.65
2023-03-26T06:38:42.015Z,67.51
2023-03-26T06:41:09.588Z,66.82
2023-03-26T06:43:37.904Z,67.38
2023-03-26T06:46:06.031Z,67.23
2023-03-26T06:48:33.601Z,67.31
2023-03-26T06:51:01.207Z,67.38
2023-03-26T06:53:28.428Z,67.81
2023-03-26T06:55:56.041Z,68.92
2023-03-26T06:58:23.459Z,69.23
2023-03-26T07:00:55.801Z,69.89
2023-03-26T07:03:24.225Z,69.01
2023-03-26T07:05:51.878Z,68.74
2023-03-26T07:08:19.530Z,68.32
2023-03-26T07:10:47.499Z,68.28
2023-03-26T07:13:14.763Z,67.69
2023-03-26T07:15:42.428Z,68.01
2023-03-26T07:18:09.852Z,67.68
2023-03-26T07:20:37.899Z,67.67
2023-03-26T07:23:05.662Z,69.04
2023-03-26T07:25:33.792Z,68.53
2023-03-26T07:28:27.340Z,68.65
2023-03-26T07:31:07.449Z,68.22
2023-03-26T07:34:09.763Z,68.34
2023-03-26T07:37:08.139Z,68.28
2023-03-26T07:39:47.803Z,67.59
2023-03-26T07:43:01.273Z,66.71
2023-03-26T07:45:43.684Z,66.39
2023-03-26T07:48:25.421Z,66.84
2023-03-26T07:50:56.771Z,65.91
2023-03-26T07:53:25.055Z,65.72
2023-03-26T07:56:55.032Z,64.25
2023-03-26T08:00:12.324Z,62.60
2023-03-26T08:03:12.566Z,61.70
2023-03-26T08:06:27.099Z,58.93
2023-03-26T08:09:10.046Z,56.74
2023-03-26T08:12:01.920Z,54.64
2023-03-26T08:15:03.596Z,51.63
2023-03-26T08:18:27.343Z,50.88
2023-03-26T08:21:17.916Z,46.68
2023-03-26T08:24:22.913Z,45.45
2023-03-26T08:27:38.199Z,46.00
2023-03-26T08:30:16.819Z,46.46
2023-03-26T08:32:54.720Z,47.33
2023-03-26T08:35:23.480Z,49.21
2023-03-26T08:37:51.937Z,49.65
2023-03-26T08:41:12.413Z,49.57
2023-03-26T08:44:41.688Z,49.53
2023-03-26T08:47:55.737Z,47.32
2023-03-26T08:51:03.442Z,47.25
2023-03-26T08:54:05.038Z,43.30
2023-03-26T08:56:59.474Z,32.14
2023-03-26T09:00:13.745Z,35.68
2023-03-26T09:03:11.290Z,36.58
2023-03-26T09:05:48.061Z,39.07
2023-03-26T09:08:18.259Z,41.52
2023-03-26T09:10:53.543Z,42.12
2023-03-26T09:14:03.632Z,43.94
2023-03-26T09:16:46.379Z,44.42
2023-03-26T09:19:58.002Z,44.32
2023-03-26T09:23:19.755Z,44.27
2023-03-26T09:26:18.725Z,42.73
2023-03-26T09:29:26.755Z,42.56
2023-03-26T09:32:25.458Z,43.12
2023-03-26T09:34:58.716Z,43.34
2023-03-26T09:37:32.641Z,44.02
2023-03-26T09:40:05.387Z,42.32
2023-03-26T09:43:25.384Z,42.18
2023-03-26T09:46:23.362Z,44.61
2023-03-26T09:49:12.002Z,46.83
2023-03-26T09:52:07.147Z,49.30
2023-03-26T09:55:01.647Z,50.59
2023-03-26T09:58:14.285Z,52.50
2023-03-26T10:01:19.470Z,54.12
2023-03-26T10:04:39.796Z,60.77
2023-03-26T10:07:58.884Z,60.91
2023-03-26T10:10:35.693Z,60.84
2023-03-26T10:13:28.182Z,62.93
2023-03-26T10:16:26.713Z,60.92
2023-03-26T10:19:17.205Z,59.19
2023-03-26T10:22:12.210Z,59.12
2023-03-26T10:25:21.608Z,58.89
2023-03-26T10:28:09.679Z,58.90
2023-03-26T10:30:56.051Z,58.36
2023-03-26T10:34:01.373Z,56.02
2023-03-26T10:36:57.278Z,50.23
2023-03-26T10:40:06.079Z,39.04
2023-03-26T10:43:05.843Z,29.17
2023-03-26T10:46:09.985Z,26.52
2023-03-26T10:49:06.875Z,25.53
2023-03-26T10:52:08.297Z,29.63
2023-03-26T10:54:56.171Z,32.83
2023-03-26T10:57:52.877Z,36.18
2023-03-26T11:00:25.596Z,38.60
2023-03-26T11:03:34.697Z,41.63
2023-03-26T11:06:12.487Z,40.73
2023-03-26T11:09:14.205Z,37.02
2023-03-26T11:11:49.182Z,33.89
2023-03-26T11:15:05.165Z,35.30
2023-03-26T11:18:09.956Z,30.79
2023-03-26T11:21:19.075Z,25.26
2023-03-26T11:24:31.625Z,28.43
2023-03-26T11:27:30.585Z,26.52
2023-03-26T11:30:18.061Z,26.62
2023-03-26T11:32:51.679Z,18.18
2023-03-26T11:35:40.179Z,13.73
2023-03-26T11:41:22.869Z,14.92
2023-03-26T11:44:11.111Z,16.28
2023-03-26T11:46:45.603Z,18.24
2023-03-26T11:49:19.073Z,20.98
2023-03-26T11:51:49.066Z,24.23
2023-03-26T11:54:17.941Z,26.15
2023-03-26T11:57:05.888Z,27.16
2023-03-26T12:00:18.363Z,28.46
2023-03-26T12:02:49.062Z,30.25
2023-03-26T12:05:26.764Z,31.43
2023-03-26T12:08:18.104Z,31.34
2023-03-26T12:11:01.104Z,32.35
2023-03-26T12:13:58.623Z,32.75
2023-03-26T12:16:38.444Z,34.92
2023-03-26T12:19:20.496Z,34.88
2023-03-26T12:21:52.193Z,25.21
2023-03-26T12:24:34.155Z,28.45
2023-03-26T12:27:28.558Z,24.10
2023-03-26T12:30:11.849Z,28.05
2023-03-26T12:32:46.776Z,31.57
2023-03-26T12:35:29.459Z,33.82
2023-03-26T12:38:17.143Z,35.24
2023-03-26T12:40:45.514Z,35.50
2023-03-26T12:44:53.290Z,34.98
2023-03-26T12:47:55.673Z,33.73
2023-03-26T12:50:34.680Z,34.82
2023-03-26T12:53:26.882Z,34.26
2023-03-26T12:57:12.373Z,34.56
2023-03-26T13:00:04.976Z,27.00
2023-03-26T13:03:29.683Z,29.47
2023-03-26T13:06:48.535Z,28.77
2023-03-26T13:09:39.478Z,30.01
2023-03-26T13:12:18.667Z,32.16
2023-03-26T13:14:59.276Z,32.58
2023-03-26T13:17:54.176Z,34.13
2023-03-26T13:20:45.827Z,34.86
2023-03-26T13:23:41.878Z,35.02
2023-03-26T13:26:45.969Z,29.48
2023-03-26T13:29:35.385Z,27.55
2023-03-26T13:32:18.329Z,27.45
2023-03-26T13:34:57.769Z,27.17
2023-03-26T13:37:56.042Z,23.06
2023-03-26T13:40:59.339Z,24.64
2023-03-26T13:43:45.119Z,25.21
2023-03-26T13:46:48.696Z,28.15
2023-03-26T13:49:41.968Z,31.45
2023-03-26T13:52:35.032Z,33.44
2023-03-26T13:55:30.246Z,35.27
2023-03-26T13:58:47.792Z,36.43
2023-03-26T14:01:35.299Z,38.25
2023-03-26T14:04:19.928Z,40.03
2023-03-26T14:07:14.383Z,40.70
2023-03-26T14:10:18.532Z,41.34
2023-03-26T14:13:37.216Z,41.58
2023-03-26T14:16:36.581Z,41.87
2023-03-26T14:20:00.216Z,41.16
2023-03-26T14:23:12.583Z,39.95
2023-03-26T14:26:17.452Z,40.88
2023-03-26T14:29:56.905Z,41.10
2023-03-26T14:33:28.712Z,41.54
2023-03-26T14:36:15.210Z,42.46
2023-03-26T14:39:35.207Z,42.80
2023-03-26T14:42:32.080Z,43.58
2023-03-26T14:45:33.217Z,43.49
2023-03-26T14:48:29.083Z,43.72
2023-03-26T14:51:34.522Z,43.90
2023-03-26T14:54:19.990Z,44.19
2023-03-26T14:57:17.547Z,44.15
2023-03-26T15:00:16.031Z,43.26
2023-03-26T15:03:40.012Z,43.00
2023-03-26T15:06:58.564Z,42.38
2023-03-26T15:09:49.166Z,42.35
2023-03-26T15:12:47.394Z,42.27
2023-03-26T15:15:35.978Z,42.33
2023-03-26T15:19:14.161Z,42.73
2023-03-26T15:22:29.781Z,42.34
2023-03-26T15:25:47.835Z,42.24
2023-03-26T15:28:39.570Z,42.37
2023-03-26T15:31:31.140Z,41.84
2023-03-26T15:34:55.265Z,41.10
2023-03-26T15:38:20.961Z,40.83
2023-03-26T15:41:25.617Z,40.70
2023-03-26T15:44:23.337Z,40.51
2023-03-26T15:47:18.375Z,40.69
2023-03-26T15:50:31.907Z,40.27
2023-03-26T15:53:34.271Z,40.34
2023-03-26T15:56:32.907Z,41.13
2023-03-26T15:59:39.136Z,41.65
2023-03-26T16:02:50.543Z,41.97
2023-03-26T16:05:26.548Z,42.63
2023-03-26T16:08:19.044Z,42.66
2023-03-26T16:11:00.092Z,43.04
2023-03-26T16:13:43.334Z,43.38
2023-03-26T16:16:50.328Z,43.48
2023-03-26T16:20:04.198Z,43.83
2023-03-26T16:23:10.475Z,43.96
2023-03-26T16:26:37.228Z,44.16
2023-03-26T16:29:28.554Z,44.58
2023-03-26T16:32:33.684Z,44.35
2023-03-26T16:35:47.062Z,44.39
2023-03-26T16:38:18.632Z,44.82
2023-03-26T16:41:50.488Z,45.17
2023-03-26T16:45:02.388Z,45.14
2023-03-26T16:48:16.145Z,45.74
2023-03-26T16:52:09.793Z,46.29
2023-03-26T16:55:24.899Z,46.85
2023-03-26T16:58:26.658Z,47.29
2023-03-26T17:01:28.309Z,47.67
2023-03-26T17:04:06.517Z,47.55
2023-03-26T17:07:30.199Z,48.06
2023-03-26T17:10:32.080Z,48.02
2023-03-26T17:13:16.875Z,48.90
2023-03-26T17:16:01.988Z,48.75
2023-03-26T17:22:45.292Z,49.15
2023-03-26T17:29:37.061Z,49.15
2023-03-26T17:37:49.753Z,49.41
2023-03-26T17:41:01.162Z,49.94
2023-03-26T17:43:56.877Z,49.61
2023-03-26T17:46:48.528Z,49.68
2023-03-26T17:50:21.988Z,50.26
2023-03-26T17:53:31.462Z,50.72
2023-03-26T17:56:12.723Z,51.44
2023-03-26T17:59:11.680Z,51.60
2023-03-26T18:02:08.383Z,51.48
2023-03-26T18:04:45.090Z,50.90
2023-03-26T18:08:16.230Z,50.89
2023-03-26T18:11:14.155Z,50.78
2023-03-26T18:13:59.803Z,50.88
2023-03-26T18:16:49.852Z,51.29
2023-03-26T18:19:23.004Z,51.12
2023-03-26T18:21:54.146Z,50.98
2023-03-26T18:24:29.388Z,51.11
2023-03-26T18:27:02.999Z,51.08
2023-03-26T18:29:36.737Z,51.11
2023-03-26T18:32:26.266Z,50.96
2023-03-26T18:35:13.555Z,50.85
2023-03-26T18:37:44.305Z,50.91
2023-03-26T18:40:21.555Z,51.43
2023-03-26T18:42:57.703Z,51.93
2023-03-26T18:45:48.351Z,52.53
2023-03-26T18:48:33.926Z,53.40
2023-03-26T18:51:07.437Z,53.89
2023-03-26T18:54:06.756Z,54.67
2023-03-26T18:56:41.768Z,55.68
2023-03-26T18:59:30.162Z,56.27
2023-03-26T19:02:13.681Z,56.31
2023-03-26T19:04:46.797Z,57.40
2023-03-26T19:07:24.144Z,58.99
2023-03-26T19:09:56.388Z,60.33
2023-03-26T19:12:33.286Z,60.35
2023-03-26T19:15:17.544Z,60.38
2023-03-26T19:17:49.730Z,60.61
2023-03-26T19:20:24.102Z,61.00
2023-03-26T19:22:52.918Z,61.23
2023-03-26T19:25:29.949Z,61.54
2023-03-26T19:27:57.806Z,61.78
2023-03-26T19:30:39.600Z,61.84
2023-03-26T19:33:19.075Z,62.18
2023-03-26T19:35:59.887Z,62.43
2023-03-26T19:38:38.009Z,62.98
2023-03-26T19:41:05.657Z,64.21
2023-03-26T19:43:33.542Z,64.90
2023-03-26T19:46:01.395Z,65.33
2023-03-26T19:48:45.760Z,65.70
2023-03-26T19:51:31.978Z,67.12
2023-03-26T19:54:04.199Z,68.63
2023-03-26T19:56:31.911Z,68.78
2023-03-26T19:58:59.614Z,69.73
2023-03-26T20:01:30.514Z,71.63
2023-03-26T20:04:05.322Z,73.11
2023-03-26T20:06:42.461Z,72.97
2023-03-26T20:09:13.476Z,73.35
2023-03-26T20:11:41.334Z,73.29
2023-03-26T20:14:26.151Z,75.04
2023-03-26T20:16:54.074Z,76.49
2023-03-26T20:19:25.223Z,76.07
2023-03-26T20:21:52.913Z,77.32
2023-03-26T20:24:21.737Z,76.61
2023-03-26T20:26:49.086Z,76.03
2023-03-26T20:29:17.658Z,75.76
2023-03-26T20:31:46.047Z,75.99
2023-03-26T20:34:23.693Z,75.40
2023-03-26T20:36:55.437Z,75.09
2023-03-26T20:39:32.471Z,74.72
2023-03-26T20:41:59.757Z,74.63
2023-03-26T20:44:28.096Z,74.69
2023-03-26T20:46:56.702Z,74.75
2023-03-26T20:49:25.112Z,74.92
2023-03-26T20:51:52.853Z,74.73
2023-03-26T20:54:25.274Z,74.72
2023-03-26T20:56:54.466Z,74.67
2023-03-26T20:59:27.021Z,74.69
2023-03-26T21:01:57.398Z,75.05
2023-03-26T21:04:26.893Z,75.29
2023-03-26T21:07:00.228Z,76.13
2023-03-26T21:09:36.758Z,77.61
2023-03-26T21:12:17.063Z,79.05
2023-03-26T21:14:45.094Z,79.57
2023-03-26T21:17:18.062Z,79.47
2023-03-26T21:19:47.270Z,80.95
2023-03-26T21:22:28.908Z,81.75
2023-03-26T21:25:34.610Z,81.98
2023-03-26T21:28:29.174Z,82.43
2023-03-26T21:31:14.859Z,82.98
2023-03-26T21:33:42.713Z,83.14
2023-03-26T21:36:11.966Z,82.56
2023-03-26T21:38:40.676Z,82.53
2023-03-26T21:41:23.215Z,82.62
2023-03-26T21:43:51.691Z,82.93
2023-03-26T21:46:41.090Z,82.80
2023-03-26T21:49:11.780Z,82.92
2023-03-26T21:51:40.493Z,82.85
2023-03-26T21:54:17.001Z,82.61
2023-03-26T21:57:17.638Z,83.84
2023-03-26T22:00:23.708Z,83.40
2023-03-26T22:03:27.678Z,83.22
2023-03-26T22:06:08.327Z,82.97
2023-03-26T22:08:42.123Z,82.88
2023-03-26T22:11:12.745Z,83.09
2023-03-26T22:13:40.375Z,82.94
2023-03-26T22:16:10.758Z,82.76
2023-03-26T22:18:38.440Z,82.71
2023-03-26T22:21:06.034Z,82.54
2023-03-26T22:23:38.258Z,82.38
2023-03-26T22:26:07.281Z,82.22
2023-03-26T22:28:35.209Z,82.22
2023-03-26T22:31:09.185Z,82.04
2023-03-26T22:33:40.159Z,82.25
2023-03-26T22:36:22.641Z,82.00
2023-03-26T22:38:53.924Z,81.76
2023-03-26T22:41:23.050Z,82.09
2023-03-26T22:43:54.639Z,81.97
2023-03-26T22:46:22.940Z,81.62
2023-03-26T22:48:51.549Z,81.58
2023-03-26T22:51:19.260Z,81.67
2023-03-26T22:53:47.279Z,81.39
2023-03-26T22:56:15.568Z,81.41
2023-03-26T22:58:43.271Z,81.52
2023-03-26T23:01:23.112Z,82.73
2023-03-26T23:03:50.985Z,82.38
2023-03-26T23:06:18.533Z,82.34
2023-03-26T23:08:46.345Z,82.44
2023-03-26T23:11:17.964Z,82.51
2023-03-26T23:13:47.857Z,82.24
2023-03-26T23:16:17.408Z,82.43
2023-03-26T23:18:45.817Z,83.48
2023-03-26T23:21:18.454Z,83.94
2023-03-26T23:23:47.614Z,84.21
2023-03-26T23:26:15.680Z,83.86
2023-03-26T23:28:43.722Z,83.75
2023-03-26T23:31:12.524Z,83.76
2023-03-26T23:33:50.503Z,83.74
2023-03-26T23:36:20.621Z,83.76
2023-03-26T23:38:49.043Z,84.08
2023-03-26T23:41:21.650Z,83.95
2023-03-26T23:43:55.710Z,84.75
2023-03-26T23:46:30.635Z,85.78
2023-03-26T23:49:05.401Z,86.53
2023-03-26T23:51:33.100Z,86.58
2023-03-26T23:54:01.599Z,86.47
2023-03-26T23:56:30.099Z,86.17
2023-03-26T23:58:59.391Z,86.18
